createdAt,value
2023-03-03T00:01:49.844Z,137.63
2023-03-03T00:04:16.309Z,135.38
2023-03-03T00:06:45.007Z,136.07
2023-03-03T00:09:11.545Z,142.38
2023-03-03T00:11:38.182Z,131.55
2023-03-03T00:14:18.728Z,144.95
2023-03-03T00:16:45.443Z,136.98
2023-03-03T00:19:17.481Z,138.85
2023-03-03T00:21:49.485Z,136.45
2023-03-03T00:24:20.410Z,147.30
2023-03-03T00:26:57.515Z,135.00
2023-03-03T00:29:31.225Z,145.80
2023-03-03T00:32:23.913Z,153.35
2023-03-03T00:34:52.164Z,147.77
2023-03-03T00:37:29.467Z,134.75
2023-03-03T00:40:24.105Z,134.43
2023-03-03T00:42:53.659Z,126.63
2023-03-03T00:45:32.128Z,135.57
2023-03-03T00:47:59.238Z,134.68
2023-03-03T00:50:31.489Z,145.52
2023-03-03T00:53:28.451Z,135.55
2023-03-03T00:55:55.857Z,133.40
2023-03-03T00:58:23.491Z,142.40
2023-03-03T01:00:52.825Z,131.95
2023-03-03T01:03:24.991Z,153.57
2023-03-03T01:05:53.339Z,156.85
2023-03-03T01:08:21.483Z,154.40
2023-03-03T01:10:51.048Z,150.85
2023-03-03T01:13:19.693Z,133.13
2023-03-03T01:15:46.382Z,135.30
2023-03-03T01:18:13.782Z,142.57
2023-03-03T01:20:40.534Z,119.03
2023-03-03T01:23:07.314Z,137.30
2023-03-03T01:25:34.204Z,126.03
2023-03-03T01:28:00.762Z,124.60
2023-03-03T01:30:27.860Z,137.52
2023-03-03T01:32:54.451Z,150.25
2023-03-03T01:35:21.422Z,150.95
2023-03-03T01:37:48.092Z,132.70
2023-03-03T01:40:18.289Z,138.95
2023-03-03T01:42:44.859Z,132.20
2023-03-03T01:45:16.633Z,139.00
2023-03-03T01:47:51.779Z,142.57
2023-03-03T01:50:50.178Z,127.60
2023-03-03T01:53:42.323Z,136.60
2023-03-03T01:56:10.034Z,128.93
2023-03-03T01:58:40.441Z,150.15
2023-03-03T02:01:09.591Z,124.22
2023-03-03T02:03:36.435Z,131.65
2023-03-03T02:06:06.778Z,131.55
2023-03-03T02:08:52.890Z,147.82
2023-03-03T02:11:20.906Z,134.40
2023-03-03T02:13:47.730Z,138.70
2023-03-03T02:16:14.685Z,139.57
2023-03-03T02:18:41.366Z,156.10
2023-03-03T02:21:15.486Z,153.38
2023-03-03T02:24:01.564Z,145.40
2023-03-03T02:26:30.580Z,143.77
2023-03-03T02:29:02.283Z,147.18
2023-03-03T02:31:30.625Z,149.57
2023-03-03T02:33:57.883Z,145.15
2023-03-03T02:36:32.146Z,141.93
2023-03-03T02:39:20.903Z,145.75
2023-03-03T02:41:55.985Z,121.68
2023-03-03T02:44:27.330Z,128.38
2023-03-03T02:46:55.076Z,138.20
2023-03-03T02:49:27.143Z,135.15
2023-03-03T02:51:54.229Z,125.10
2023-03-03T02:54:23.474Z,138.50
2023-03-03T02:56:51.140Z,134.68
2023-03-03T02:59:17.847Z,135.48
2023-03-03T03:01:49.601Z,132.80
2023-03-03T03:04:20.590Z,126.03
2023-03-03T03:06:49.751Z,132.02
2023-03-03T03:09:18.557Z,146.77
2023-03-03T03:11:46.599Z,137.55
2023-03-03T03:14:15.726Z,134.57
2023-03-03T03:16:43.579Z,123.90
2023-03-03T03:19:11.070Z,148.95
2023-03-03T03:21:38.734Z,133.65
2023-03-03T03:24:06.977Z,136.88
2023-03-03T03:26:35.253Z,140.48
2023-03-03T03:29:02.643Z,132.15
2023-03-03T03:31:29.239Z,135.13
2023-03-03T03:33:55.824Z,146.82
2023-03-03T03:36:23.583Z,133.40
2023-03-03T03:38:52.276Z,133.57
2023-03-03T03:41:18.769Z,131.10
2023-03-03T03:43:46.600Z,130.98
2023-03-03T03:46:13.997Z,144.95
2023-03-03T03:48:40.509Z,128.18
2023-03-03T03:51:11.885Z,131.52
2023-03-03T03:53:39.455Z,136.98
2023-03-03T03:56:06.403Z,128.98
2023-03-03T03:58:33.854Z,125.32
2023-03-03T04:01:06.452Z,126.43
2023-03-03T04:03:36.209Z,146.57
2023-03-03T04:06:06.351Z,135.17
2023-03-03T04:08:33.656Z,139.70
2023-03-03T04:11:00.976Z,142.27
2023-03-03T04:13:31.794Z,141.23
2023-03-03T04:15:59.319Z,137.90
2023-03-03T04:18:26.015Z,140.18
2023-03-03T04:20:54.545Z,146.80
2023-03-03T04:23:21.432Z,155.73
2023-03-03T04:25:48.946Z,140.38
2023-03-03T04:28:16.686Z,151.00
2023-03-03T04:30:44.280Z,158.30
2023-03-03T04:33:11.272Z,148.45
2023-03-03T04:35:39.890Z,156.35
2023-03-03T04:38:07.115Z,157.88
2023-03-03T04:40:35.260Z,171.52
2023-03-03T04:43:04.077Z,165.48
2023-03-03T04:45:30.875Z,156.70
2023-03-03T04:47:57.589Z,145.77
2023-03-03T04:50:24.342Z,157.88
2023-03-03T04:52:51.773Z,149.32
2023-03-03T04:55:21.557Z,164.60
2023-03-03T04:57:48.892Z,154.50
2023-03-03T05:00:16.086Z,149.05
2023-03-03T05:02:43.623Z,127.47
2023-03-03T05:05:11.473Z,124.97
2023-03-03T05:07:39.155Z,139.63
2023-03-03T05:10:08.156Z,155.15
2023-03-03T05:12:34.770Z,135.82
2023-03-03T05:15:02.712Z,152.60
2023-03-03T05:17:29.636Z,149.63
2023-03-03T05:19:57.255Z,132.75
2023-03-03T05:22:24.554Z,152.80
2023-03-03T05:24:51.512Z,149.15
2023-03-03T05:27:18.116Z,140.18
2023-03-03T05:29:45.212Z,147.90
2023-03-03T05:32:12.428Z,156.10
2023-03-03T05:34:39.138Z,145.82
2023-03-03T05:37:07.345Z,144.57
2023-03-03T05:39:34.794Z,157.48
2023-03-03T05:42:02.523Z,141.10
2023-03-03T05:44:29.773Z,142.40
2023-03-03T05:46:57.693Z,137.05
2023-03-03T05:49:26.716Z,158.02
2023-03-03T05:51:54.774Z,147.73
2023-03-03T05:54:21.802Z,152.95
2023-03-03T05:56:48.390Z,126.85
2023-03-03T05:59:15.150Z,118.35
2023-03-03T06:01:41.772Z,109.15
2023-03-03T06:04:10.892Z,124.85
2023-03-03T06:06:37.782Z,111.85
2023-03-03T06:09:05.006Z,100.22
2023-03-03T06:11:31.740Z,92.43
2023-03-03T06:13:58.756Z,104.85
2023-03-03T06:16:26.049Z,101.32
2023-03-03T06:18:52.681Z,87.35
2023-03-03T06:21:19.227Z,93.57
2023-03-03T06:23:46.489Z,92.00
2023-03-03T06:26:13.264Z,90.43
2023-03-03T06:28:39.886Z,94.70
2023-03-03T06:31:06.476Z,82.47
2023-03-03T06:33:32.978Z,65.65
2023-03-03T06:35:59.747Z,68.53
2023-03-03T06:38:26.364Z,82.45
2023-03-03T06:40:52.911Z,68.40
2023-03-03T06:43:19.522Z,75.07
2023-03-03T06:45:46.821Z,67.88
2023-03-03T06:48:15.350Z,66.43
2023-03-03T06:50:42.416Z,60.78
2023-03-03T06:53:14.128Z,83.03
2023-03-03T06:55:44.539Z,89.05
2023-03-03T06:58:16.114Z,82.55
2023-03-03T07:00:44.319Z,81.32
2023-03-03T07:03:17.660Z,100.13
2023-03-03T07:05:44.814Z,100.00
2023-03-03T07:08:17.364Z,108.18
2023-03-03T07:10:44.809Z,108.30
2023-03-03T07:13:27.349Z,110.25
2023-03-03T07:15:56.114Z,100.25
2023-03-03T07:18:33.801Z,108.40
2023-03-03T07:21:08.808Z,112.15
2023-03-03T07:23:45.011Z,105.75
2023-03-03T07:26:13.424Z,102.18
2023-03-03T07:28:45.404Z,98.70
2023-03-03T07:31:39.550Z,103.07
2023-03-03T07:34:21.666Z,110.57
2023-03-03T07:36:50.084Z,106.43
2023-03-03T07:39:32.304Z,108.05
2023-03-03T07:42:09.530Z,118.28
2023-03-03T07:44:37.722Z,115.25
2023-03-03T07:47:26.270Z,102.45
2023-03-03T07:49:55.308Z,101.03
2023-03-03T07:52:25.100Z,105.18
2023-03-03T07:54:51.947Z,117.45
2023-03-03T07:57:39.909Z,102.43
2023-03-03T08:00:16.383Z,111.25
2023-03-03T08:03:05.979Z,102.72
2023-03-03T08:05:37.130Z,100.85
2023-03-03T08:10:44.514Z,87.25
2023-03-03T08:13:44.818Z,92.63
2023-03-03T08:16:11.283Z,99.10
2023-03-03T08:18:46.761Z,111.53
2023-03-03T08:21:25.857Z,105.15
2023-03-03T08:23:53.808Z,96.57
2023-03-03T08:26:22.301Z,99.57
2023-03-03T08:28:48.851Z,97.10
2023-03-03T08:31:30.836Z,100.30
2023-03-03T08:34:04.545Z,105.00
2023-03-03T08:36:33.663Z,97.32
2023-03-03T08:39:01.371Z,103.18
2023-03-03T08:41:27.969Z,120.82
2023-03-03T08:43:54.508Z,120.88
2023-03-03T08:46:21.119Z,126.93
2023-03-03T08:48:47.709Z,128.98
2023-03-03T08:51:14.708Z,123.55
2023-03-03T08:53:41.683Z,124.25
2023-03-03T08:56:10.218Z,136.85
2023-03-03T08:58:36.873Z,123.03
2023-03-03T09:01:05.416Z,124.07
2023-03-03T09:03:35.025Z,120.30
2023-03-03T09:06:01.600Z,155.18
2023-03-03T09:08:31.072Z,151.63
2023-03-03T09:10:57.601Z,150.35
2023-03-03T09:13:24.162Z,157.00
2023-03-03T09:15:51.010Z,135.25
2023-03-03T09:18:37.084Z,143.20
2023-03-03T09:21:22.696Z,144.25
2023-03-03T09:23:59.163Z,138.63
2023-03-03T09:26:37.467Z,140.77
2023-03-03T09:29:09.909Z,145.75
2023-03-03T09:31:54.379Z,155.65
2023-03-03T09:34:36.108Z,159.35
2023-03-03T09:37:25.268Z,156.13
2023-03-03T09:39:53.547Z,132.80
2023-03-03T09:42:29.092Z,137.63
2023-03-03T09:45:17.873Z,145.02
2023-03-03T09:47:53.522Z,145.85
2023-03-03T09:50:34.619Z,154.70
2023-03-03T09:53:12.396Z,146.32
2023-03-03T09:56:13.364Z,145.60
2023-03-03T09:58:58.351Z,126.55
2023-03-03T10:01:57.872Z,129.00
2023-03-03T10:04:33.283Z,128.63
2023-03-03T10:07:04.337Z,133.77
2023-03-03T10:10:08.541Z,132.45
2023-03-03T10:13:12.522Z,126.15
2023-03-03T10:16:00.208Z,124.82
2023-03-03T10:18:33.520Z,136.65
2023-03-03T10:21:05.824Z,122.20
2023-03-03T10:23:45.253Z,124.55
2023-03-03T10:27:05.462Z,133.32
2023-03-03T10:30:05.710Z,114.70
2023-03-03T10:32:38.291Z,130.32
2023-03-03T10:35:26.517Z,129.80
2023-03-03T10:37:55.881Z,119.90
2023-03-03T10:40:37.339Z,127.68
2023-03-03T10:43:32.650Z,129.48
2023-03-03T10:46:12.690Z,112.50
2023-03-03T10:48:54.475Z,115.80
2023-03-03T10:51:48.596Z,129.23
2023-03-03T10:54:21.015Z,125.07
2023-03-03T10:57:13.794Z,168.77
2023-03-03T10:59:45.123Z,165.50
2023-03-03T11:02:18.627Z,150.57
2023-03-03T11:04:49.571Z,138.15
2023-03-03T11:07:25.135Z,133.77
2023-03-03T11:10:15.043Z,135.40
2023-03-03T11:13:10.046Z,129.20
2023-03-03T11:15:47.477Z,141.15
2023-03-03T11:18:32.378Z,129.25
2023-03-03T11:20:59.708Z,126.70
2023-03-03T11:24:10.656Z,124.63
2023-03-03T11:26:43.123Z,155.18
2023-03-03T11:29:35.267Z,159.35
2023-03-03T11:32:27.308Z,148.93
2023-03-03T11:35:17.273Z,161.57
2023-03-03T11:37:57.195Z,144.65
2023-03-03T11:40:32.450Z,119.35
2023-03-03T11:43:10.651Z,120.18
2023-03-03T11:45:44.222Z,117.20
2023-03-03T11:48:47.865Z,116.90
2023-03-03T11:51:27.799Z,115.13
2023-03-03T11:54:00.193Z,112.53
2023-03-03T11:56:38.972Z,115.22
2023-03-03T11:59:44.234Z,115.65
2023-03-03T12:02:43.936Z,120.05
2023-03-03T12:05:29.292Z,114.85
2023-03-03T12:08:31.804Z,115.45
2023-03-03T12:11:10.406Z,115.80
2023-03-03T12:13:43.089Z,113.55
2023-03-03T12:16:20.868Z,115.28
2023-03-03T12:19:03.309Z,101.13
2023-03-03T12:22:02.266Z,94.90
2023-03-03T12:24:46.504Z,102.55
2023-03-03T12:27:35.941Z,93.72
2023-03-03T12:30:38.690Z,100.22
2023-03-03T12:33:22.209Z,105.00
2023-03-03T12:36:06.327Z,102.95
2023-03-03T12:38:49.530Z,103.45
2023-03-03T12:41:21.210Z,111.35
2023-03-03T12:43:54.478Z,104.22
2023-03-03T12:46:29.489Z,108.30
2023-03-03T12:48:56.251Z,113.13
2023-03-03T12:51:50.284Z,119.00
2023-03-03T12:54:37.782Z,138.60
2023-03-03T12:57:29.100Z,130.23
2023-03-03T13:00:10.919Z,128.10
2023-03-03T13:03:10.047Z,127.40
2023-03-03T13:05:48.598Z,136.85
2023-03-03T13:08:31.399Z,140.60
2023-03-03T13:11:18.872Z,155.77
2023-03-03T13:13:53.643Z,152.65
2023-03-03T13:16:44.720Z,142.50
2023-03-03T13:19:31.781Z,144.20
2023-03-03T13:22:14.636Z,152.90
2023-03-03T13:25:00.050Z,133.43
2023-03-03T13:27:33.019Z,143.13
2023-03-03T13:30:04.100Z,148.18
2023-03-03T13:32:58.484Z,124.15
2023-03-03T13:35:42.429Z,140.43
2023-03-03T13:38:14.512Z,148.25
2023-03-03T13:40:49.157Z,142.65
2023-03-03T13:43:20.138Z,138.88
2023-03-03T13:45:49.427Z,133.27
2023-03-03T13:48:27.781Z,146.15
2023-03-03T13:50:58.300Z,127.93
2023-03-03T13:53:49.767Z,133.23
2023-03-03T13:56:35.286Z,149.95
2023-03-03T13:59:20.564Z,142.48
2023-03-03T14:02:15.368Z,146.45
2023-03-03T14:04:50.922Z,145.35
2023-03-03T14:07:33.503Z,148.77
2023-03-03T14:10:12.937Z,139.57
2023-03-03T14:13:02.466Z,153.98
2023-03-03T14:15:36.712Z,128.77
2023-03-03T14:18:32.087Z,131.75
2023-03-03T14:21:12.296Z,126.40
2023-03-03T14:23:50.451Z,128.00
2023-03-03T14:26:17.396Z,124.05
2023-03-03T14:28:49.973Z,122.88
2023-03-03T14:31:23.461Z,122.03
2023-03-03T14:34:14.493Z,121.63
2023-03-03T14:36:43.333Z,119.05
2023-03-03T14:39:28.759Z,119.53
2023-03-03T14:41:57.511Z,106.57
2023-03-03T14:44:36.946Z,103.90
2023-03-03T14:47:09.369Z,106.97
2023-03-03T14:49:38.503Z,111.22
2023-03-03T14:52:19.853Z,108.38
2023-03-03T14:57:37.456Z,100.50
2023-03-03T15:00:33.007Z,106.43
2023-03-03T15:03:22.535Z,96.97
2023-03-03T15:05:51.433Z,97.45
2023-03-03T15:08:30.066Z,89.28
2023-03-03T15:11:15.751Z,95.57
2023-03-03T15:13:42.418Z,82.80
2023-03-03T15:16:23.928Z,86.18
2023-03-03T15:19:11.689Z,88.38
2023-03-03T15:21:45.997Z,81.47
2023-03-03T15:24:26.636Z,90.15
2023-03-03T15:26:59.084Z,92.00
2023-03-03T15:29:28.413Z,81.28
2023-03-03T15:32:24.121Z,78.25
2023-03-03T15:34:59.872Z,83.32
2023-03-03T15:38:05.328Z,80.88
2023-03-03T15:40:39.864Z,82.68
2023-03-03T15:43:11.413Z,79.80
2023-03-03T15:45:46.633Z,82.13
2023-03-03T15:48:28.167Z,79.13
2023-03-03T15:51:11.753Z,78.63
2023-03-03T15:54:03.115Z,80.47
2023-03-03T15:59:23.612Z,88.38
2023-03-03T16:01:56.244Z,76.43
2023-03-03T16:04:26.404Z,68.90
2023-03-03T16:07:06.513Z,66.07
2023-03-03T16:09:39.843Z,70.63
2023-03-03T16:12:21.347Z,65.45
2023-03-03T16:15:15.070Z,75.28
2023-03-03T16:17:56.716Z,64.93
2023-03-03T16:20:51.317Z,61.28
2023-03-03T16:23:26.789Z,59.88
2023-03-03T16:26:28.855Z,55.33
2023-03-03T16:29:13.949Z,60.60
2023-03-03T16:31:45.737Z,61.65
2023-03-03T16:34:33.433Z,54.38
2023-03-03T16:37:21.596Z,59.13
2023-03-03T16:40:00.441Z,59.05
2023-03-03T16:42:32.420Z,57.92
2023-03-03T16:47:58.595Z,63.40
2023-03-03T16:50:39.873Z,68.25
2023-03-03T16:55:45.956Z,60.67
2023-03-03T16:58:53.924Z,69.53
2023-03-03T17:01:57.977Z,65.65
2023-03-03T17:04:39.569Z,56.92
2023-03-03T17:07:33.833Z,64.40
2023-03-03T17:10:23.216Z,55.15
2023-03-03T17:12:52.849Z,53.03
2023-03-03T17:15:25.164Z,46.75
2023-03-03T17:18:03.764Z,45.90
2023-03-03T17:20:42.225Z,43.60
2023-03-03T17:23:40.534Z,49.72
2023-03-03T17:26:16.110Z,44.85
2023-03-03T17:29:11.713Z,49.10
2023-03-03T17:31:50.785Z,47.28
2023-03-03T17:34:25.984Z,49.17
2023-03-03T17:37:19.163Z,51.03
2023-03-03T17:40:33.171Z,49.45
2023-03-03T17:43:03.790Z,45.92
2023-03-03T17:45:35.129Z,58.42
2023-03-03T17:48:20.259Z,52.83
2023-03-03T17:50:57.286Z,55.38
2023-03-03T17:53:42.136Z,52.13
2023-03-03T17:56:24.720Z,54.53
2023-03-03T17:59:10.648Z,48.55
2023-03-03T18:01:59.132Z,47.90
2023-03-03T18:04:27.918Z,44.42
2023-03-03T18:07:20.890Z,56.75
2023-03-03T18:10:33.384Z,56.97
2023-03-03T18:13:29.105Z,58.25
2023-03-03T18:16:19.228Z,57.25
2023-03-03T18:19:11.646Z,53.63
2023-03-03T18:21:54.016Z,54.58
2023-03-03T18:24:38.332Z,54.50
2023-03-03T18:27:31.297Z,58.33
2023-03-03T18:30:16.676Z,56.38
2023-03-03T18:32:55.200Z,55.10
2023-03-03T18:35:33.634Z,61.08
2023-03-03T18:38:15.518Z,54.63
2023-03-03T18:40:59.110Z,62.75
2023-03-03T18:43:43.690Z,59.30
2023-03-03T18:46:36.095Z,58.75
2023-03-03T18:49:10.301Z,67.40
2023-03-03T18:51:39.717Z,57.97
2023-03-03T18:54:12.150Z,66.45
2023-03-03T18:56:50.041Z,71.07
2023-03-03T18:59:31.766Z,67.93
2023-03-03T19:02:13.910Z,69.43
2023-03-03T19:04:42.825Z,65.70
2023-03-03T19:07:12.217Z,66.43
2023-03-03T19:09:56.872Z,74.47
2023-03-03T19:12:47.662Z,69.85
2023-03-03T19:15:38.693Z,73.38
2023-03-03T19:18:18.763Z,84.93
2023-03-03T19:20:48.183Z,68.85
2023-03-03T19:23:16.566Z,65.22
2023-03-03T19:25:43.065Z,69.28
2023-03-03T19:28:15.390Z,70.68
2023-03-03T19:31:01.336Z,82.38
2023-03-03T19:34:06.318Z,85.90
2023-03-03T19:36:51.571Z,88.80
2023-03-03T19:39:35.309Z,88.80
2023-03-03T19:42:42.208Z,72.60
2023-03-03T19:45:35.315Z,64.82
2023-03-03T19:48:35.021Z,72.57
2023-03-03T19:51:07.467Z,78.32
2023-03-03T19:53:52.234Z,66.85
2023-03-03T19:56:19.651Z,68.28
2023-03-03T19:59:13.638Z,65.97
2023-03-03T20:01:59.681Z,59.80
2023-03-03T20:04:52.199Z,61.00
2023-03-03T20:07:23.861Z,63.15
2023-03-03T20:09:54.598Z,65.65
2023-03-03T20:12:39.476Z,70.18
2023-03-03T20:15:15.038Z,60.95
2023-03-03T20:17:50.394Z,57.35
2023-03-03T20:20:28.990Z,61.08
2023-03-03T20:26:57.417Z,58.40
2023-03-03T20:30:03.799Z,67.40
2023-03-03T20:32:58.330Z,64.95
2023-03-03T20:35:30.911Z,64.25
2023-03-03T20:38:03.422Z,61.22
2023-03-03T20:40:39.349Z,62.22
2023-03-03T20:43:34.176Z,57.47
2023-03-03T20:46:15.536Z,58.78
2023-03-03T20:49:19.928Z,62.30
2023-03-03T20:52:27.887Z,63.13
2023-03-03T20:55:12.812Z,53.97
2023-03-03T20:57:49.880Z,54.38
2023-03-03T21:00:29.072Z,58.88
2023-03-03T21:03:04.189Z,52.63
2023-03-03T21:05:30.768Z,38.88
2023-03-03T21:08:08.010Z,34.10
2023-03-03T21:10:36.548Z,37.50
2023-03-03T21:13:32.181Z,31.45
2023-03-03T21:16:06.527Z,32.67
2023-03-03T21:18:33.110Z,37.05
2023-03-03T21:20:59.759Z,29.25
2023-03-03T21:23:26.328Z,34.03
2023-03-03T21:25:54.182Z,27.98
2023-03-03T21:28:22.490Z,38.17
2023-03-03T21:31:10.252Z,36.35
2023-03-03T21:33:54.396Z,33.08
2023-03-03T21:36:44.672Z,34.67
2023-03-03T21:39:29.799Z,37.70
2023-03-03T21:42:29.167Z,33.92
2023-03-03T21:44:55.793Z,46.10
2023-03-03T21:47:23.829Z,44.83
2023-03-03T21:49:51.811Z,44.25
2023-03-03T21:52:21.048Z,56.90
2023-03-03T21:54:49.728Z,53.00
2023-03-03T21:57:16.596Z,59.13
2023-03-03T21:59:43.131Z,48.95
2023-03-03T22:02:10.465Z,53.55
2023-03-03T22:04:40.760Z,56.25
2023-03-03T22:07:07.902Z,46.93
2023-03-03T22:09:34.981Z,50.83
2023-03-03T22:12:03.327Z,48.63
2023-03-03T22:14:29.930Z,50.95
2023-03-03T22:16:57.213Z,53.83
2023-03-03T22:19:23.900Z,50.00
2023-03-03T22:21:51.022Z,52.25
2023-03-03T22:24:17.776Z,47.30
2023-03-03T22:26:44.427Z,46.42
2023-03-03T22:29:11.244Z,48.47
2023-03-03T22:31:37.912Z,47.75
2023-03-03T22:34:04.680Z,48.88
2023-03-03T22:36:31.307Z,43.00
2023-03-03T22:38:57.896Z,46.03
2023-03-03T22:41:24.594Z,44.35
2023-03-03T22:43:51.367Z,47.47
2023-03-03T22:46:18.079Z,40.65
2023-03-03T22:48:46.883Z,40.78
2023-03-03T22:51:13.391Z,19.20
2023-03-03T22:53:40.686Z,12.93
2023-03-03T22:56:07.706Z,16.65
2023-03-03T22:58:34.684Z,11.25
2023-03-03T23:01:02.427Z,8.63
2023-03-03T23:03:29.080Z,12.57
2023-03-03T23:05:55.730Z,12.07
2023-03-03T23:08:22.314Z,14.27
2023-03-03T23:10:49.208Z,9.23
2023-03-03T23:13:15.897Z,11.70
2023-03-03T23:15:42.746Z,9.00
2023-03-03T23:18:09.550Z,12.05
2023-03-03T23:20:36.767Z,9.65
2023-03-03T23:23:03.665Z,10.32
2023-03-03T23:25:31.305Z,10.07
2023-03-03T23:27:58.421Z,10.07
2023-03-03T23:30:25.625Z,10.45
2023-03-03T23:32:52.445Z,8.10
2023-03-03T23:35:19.769Z,12.57
2023-03-03T23:37:46.363Z,10.00
2023-03-03T23:40:14.743Z,10.52
2023-03-03T23:42:41.278Z,11.27
2023-03-03T23:45:09.201Z,7.32
2023-03-03T23:47:36.474Z,20.35
2023-03-03T23:50:03.543Z,10.48
2023-03-03T23:52:30.097Z,7.78
2023-03-03T23:54:56.718Z,14.30
2023-03-03T23:57:23.510Z,17.23
2023-03-03T23:59:50.148Z,19.63
